createdAt,value
2022-09-04T00:00:18.860Z,17.91
2022-09-04T00:03:03.535Z,17.91
2022-09-04T00:05:39.356Z,17.89
2022-09-04T00:08:12.053Z,17.87
2022-09-04T00:10:55.856Z,17.85
2022-09-04T00:13:31.812Z,17.84
2022-09-04T00:16:21.093Z,17.80
2022-09-04T00:19:07.874Z,17.80
2022-09-04T00:21:44.508Z,17.74
2022-09-04T00:24:17.897Z,17.73
2022-09-04T00:26:52.913Z,17.65
2022-09-04T00:29:43.737Z,17.67
2022-09-04T00:32:25.430Z,17.66
2022-09-04T00:35:01.537Z,17.64
2022-09-04T00:37:38.559Z,17.64
2022-09-04T00:40:26.832Z,17.62
2022-09-04T00:43:27.017Z,17.56
2022-09-04T00:46:31.986Z,17.55
2022-09-04T00:49:16.815Z,17.54
2022-09-04T00:52:36.248Z,17.50
2022-09-04T00:55:41.518Z,17.49
2022-09-04T00:58:36.285Z,17.44
2022-09-04T01:01:04.438Z,17.43
2022-09-04T01:04:28.829Z,17.39
2022-09-04T01:07:23.019Z,17.41
2022-09-04T01:10:19.596Z,17.39
2022-09-04T01:12:57.812Z,17.42
2022-09-04T01:15:34.544Z,17.44
2022-09-04T01:18:13.379Z,17.47
2022-09-04T01:20:58.804Z,17.48
2022-09-04T01:23:40.894Z,17.51
2022-09-04T01:26:19.964Z,17.52
2022-09-04T01:29:13.860Z,17.49
2022-09-04T01:32:28.174Z,17.45
2022-09-04T01:35:12.655Z,17.41
2022-09-04T01:37:57.552Z,17.39
2022-09-04T01:40:40.844Z,17.33
2022-09-04T01:43:21.274Z,17.28
2022-09-04T01:46:01.390Z,17.26
2022-09-04T01:48:47.585Z,17.23
2022-09-04T01:51:29.213Z,17.22
2022-09-04T01:54:37.547Z,17.18
2022-09-04T01:57:24.338Z,17.18
2022-09-04T02:00:09.456Z,17.13
2022-09-04T02:02:56.514Z,17.09
2022-09-04T02:05:45.680Z,17.07
2022-09-04T02:08:37.133Z,17.03
2022-09-04T02:11:09.687Z,17.04
2022-09-04T02:13:53.877Z,17.01
2022-09-04T02:16:31.353Z,16.97
2022-09-04T02:19:30.251Z,16.89
2022-09-04T02:22:15.403Z,16.89
2022-09-04T02:24:57.750Z,16.91
2022-09-04T02:27:35.092Z,16.92
2022-09-04T02:30:10.415Z,16.91
2022-09-04T02:33:07.547Z,16.89
2022-09-04T02:35:46.444Z,16.88
2022-09-04T02:38:25.259Z,16.83
2022-09-04T02:40:58.888Z,16.81
2022-09-04T02:43:57.580Z,16.76
2022-09-04T02:47:02.121Z,16.71
2022-09-04T02:49:59.602Z,16.69
2022-09-04T02:52:40.559Z,16.70
2022-09-04T02:55:39.952Z,16.69
2022-09-04T02:58:14.856Z,16.69
2022-09-04T03:01:04.846Z,16.69
2022-09-04T03:03:46.803Z,16.65
2022-09-04T03:06:23.969Z,16.64
2022-09-04T03:08:59.222Z,16.62
2022-09-04T03:11:37.386Z,16.57
2022-09-04T03:14:23.708Z,16.55
2022-09-04T03:17:02.769Z,16.54
2022-09-04T03:19:45.313Z,16.50
2022-09-04T03:22:24.411Z,16.47
2022-09-04T03:25:14.712Z,16.45
2022-09-04T03:27:41.380Z,16.44
2022-09-04T03:30:11.286Z,16.44
2022-09-04T03:33:03.834Z,16.39
2022-09-04T03:35:52.257Z,16.37
2022-09-04T03:38:25.337Z,16.35
2022-09-04T03:41:11.243Z,16.30
2022-09-04T03:44:23.144Z,16.25
2022-09-04T03:47:17.212Z,16.25
2022-09-04T03:50:09.735Z,16.25
2022-09-04T03:52:51.192Z,16.26
2022-09-04T03:55:45.586Z,16.22
2022-09-04T03:58:52.388Z,16.19
2022-09-04T04:01:37.709Z,16.18
2022-09-04T04:04:13.709Z,16.23
2022-09-04T04:06:57.331Z,16.24
2022-09-04T04:10:02.345Z,16.27
2022-09-04T04:12:51.559Z,16.32
2022-09-04T04:15:24.419Z,16.42
2022-09-04T04:17:50.921Z,16.47
2022-09-04T04:20:41.101Z,16.50
2022-09-04T04:23:21.545Z,16.53
2022-09-04T04:25:55.512Z,16.56
2022-09-04T04:28:59.979Z,16.56
2022-09-04T04:31:45.795Z,16.59
2022-09-04T04:34:21.609Z,16.60
2022-09-04T04:37:06.045Z,16.58
2022-09-04T04:40:34.039Z,16.53
2022-09-04T04:43:18.578Z,16.54
2022-09-04T04:45:57.242Z,16.52
2022-09-04T04:49:00.674Z,16.49
2022-09-04T04:52:25.270Z,16.49
2022-09-04T04:55:06.696Z,16.55
2022-09-04T04:58:14.762Z,16.68
2022-09-04T05:01:25.188Z,17.52
2022-09-04T05:04:17.237Z,18.20
2022-09-04T05:06:54.810Z,18.62
2022-09-04T05:09:42.563Z,18.96
2022-09-04T05:12:15.010Z,19.36
2022-09-04T05:14:59.842Z,19.45
2022-09-04T05:17:34.654Z,19.58
2022-09-04T05:20:26.279Z,19.59
2022-09-04T05:23:11.353Z,19.83
2022-09-04T05:25:37.911Z,20.04
2022-09-04T05:28:21.558Z,20.14
2022-09-04T05:30:48.135Z,20.14
2022-09-04T05:33:34.638Z,20.19
2022-09-04T05:36:18.305Z,20.21
2022-09-04T05:39:04.463Z,20.19
2022-09-04T05:41:36.802Z,20.28
2022-09-04T05:44:12.366Z,20.34
2022-09-04T05:47:02.393Z,20.44
2022-09-04T05:49:44.093Z,20.63
2022-09-04T05:52:23.237Z,20.87
2022-09-04T05:55:17.022Z,21.04
2022-09-04T05:57:59.138Z,21.10
2022-09-04T06:00:29.433Z,21.11
2022-09-04T06:03:16.388Z,21.25
2022-09-04T06:06:04.641Z,21.22
2022-09-04T06:08:50.752Z,21.28
2022-09-04T06:11:51.468Z,21.31
2022-09-04T06:14:44.479Z,21.34
2022-09-04T06:17:18.537Z,21.35
2022-09-04T06:20:04.412Z,21.14
2022-09-04T06:22:56.109Z,21.07
2022-09-04T06:25:41.705Z,21.17
2022-09-04T06:28:11.261Z,21.27
2022-09-04T06:31:02.975Z,21.29
2022-09-04T06:33:43.806Z,21.33
2022-09-04T06:36:25.824Z,21.32
2022-09-04T06:39:03.012Z,21.33
2022-09-04T06:41:41.903Z,21.35
2022-09-04T06:44:11.219Z,21.39
2022-09-04T06:47:11.598Z,21.36
2022-09-04T06:49:58.721Z,21.47
2022-09-04T06:52:29.157Z,21.46
2022-09-04T06:55:08.398Z,21.47
2022-09-04T06:58:03.352Z,21.54
2022-09-04T07:00:39.762Z,21.63
2022-09-04T07:03:16.267Z,21.76
2022-09-04T07:05:57.964Z,21.82
2022-09-04T07:08:42.991Z,21.84
2022-09-04T07:11:44.778Z,21.83
2022-09-04T07:14:32.344Z,21.83
2022-09-04T07:17:19.910Z,21.53
2022-09-04T07:20:17.144Z,21.48
2022-09-04T07:23:02.984Z,21.64
2022-09-04T07:25:32.915Z,21.66
2022-09-04T07:28:19.102Z,21.78
2022-09-04T07:31:07.193Z,21.80
2022-09-04T07:33:50.447Z,21.68
2022-09-04T07:36:45.662Z,21.64
2022-09-04T07:39:28.656Z,21.83
2022-09-04T07:42:01.425Z,22.06
2022-09-04T07:44:59.165Z,22.20
2022-09-04T07:47:34.961Z,22.27
2022-09-04T07:50:17.485Z,22.37
2022-09-04T07:52:50.390Z,22.50
2022-09-04T07:55:41.362Z,22.60
2022-09-04T07:58:41.172Z,22.70
2022-09-04T08:01:42.695Z,22.74
2022-09-04T08:04:51.066Z,22.63
2022-09-04T08:07:33.160Z,22.65
2022-09-04T08:10:05.731Z,22.61
2022-09-04T08:13:03.564Z,22.73
2022-09-04T08:15:42.967Z,22.82
2022-09-04T08:18:21.271Z,22.87
2022-09-04T08:21:13.989Z,22.84
2022-09-04T08:23:46.497Z,22.84
2022-09-04T08:26:31.436Z,22.70
2022-09-04T08:29:32.156Z,22.75
2022-09-04T08:32:04.443Z,22.92
2022-09-04T08:34:42.393Z,22.97
2022-09-04T08:37:20.976Z,23.02
2022-09-04T08:39:59.086Z,23.06
2022-09-04T08:42:47.004Z,23.07
2022-09-04T08:45:19.380Z,23.19
2022-09-04T08:48:19.275Z,23.19
2022-09-04T08:51:06.334Z,23.13
2022-09-04T08:54:10.159Z,23.00
2022-09-04T08:56:58.647Z,22.94
2022-09-04T08:59:30.991Z,22.87
2022-09-04T09:02:25.121Z,22.97
2022-09-04T09:05:23.052Z,22.89
2022-09-04T09:08:31.984Z,22.72
2022-09-04T09:11:04.966Z,22.67
2022-09-04T09:13:57.703Z,22.85
2022-09-04T09:16:49.782Z,23.12
2022-09-04T09:19:28.420Z,23.18
2022-09-04T09:21:57.762Z,23.07
2022-09-04T09:24:42.850Z,23.05
2022-09-04T09:27:21.671Z,23.06
2022-09-04T09:30:04.560Z,23.32
2022-09-04T09:32:43.249Z,23.56
2022-09-04T09:35:51.600Z,23.58
2022-09-04T09:38:34.832Z,23.58
2022-09-04T09:41:10.543Z,23.56
2022-09-04T09:44:31.236Z,23.67
2022-09-04T09:47:16.440Z,23.81
2022-09-04T09:49:55.065Z,24.01
2022-09-04T09:52:41.884Z,24.23
2022-09-04T09:55:38.603Z,24.49
2022-09-04T09:58:30.291Z,24.64
2022-09-04T10:01:00.160Z,24.75
2022-09-04T10:03:59.388Z,24.76
2022-09-04T10:06:40.489Z,24.79
2022-09-04T10:09:37.906Z,24.71
2022-09-04T10:12:16.624Z,24.90
2022-09-04T10:15:13.854Z,25.02
2022-09-04T10:18:01.893Z,25.24
2022-09-04T10:20:37.023Z,25.45
2022-09-04T10:23:07.644Z,25.62
2022-09-04T10:25:55.510Z,25.64
2022-09-04T10:29:10.064Z,25.65
2022-09-04T10:32:06.804Z,25.75
2022-09-04T10:35:15.053Z,25.86
2022-09-04T10:38:00.470Z,25.99
2022-09-04T10:40:54.078Z,26.01
2022-09-04T10:43:51.900Z,26.10
2022-09-04T10:46:24.863Z,26.19
2022-09-04T10:49:14.706Z,26.33
2022-09-04T10:52:06.517Z,26.51
2022-09-04T10:54:45.145Z,26.65
2022-09-04T10:57:14.582Z,26.85
2022-09-04T11:00:07.675Z,26.98
2022-09-04T11:03:33.319Z,27.24
2022-09-04T11:06:11.869Z,27.54
2022-09-04T11:09:09.325Z,27.73
2022-09-04T11:11:41.833Z,27.91
2022-09-04T11:14:39.444Z,27.96
2022-09-04T11:17:30.899Z,28.03
2022-09-04T11:20:27.170Z,28.08
2022-09-04T11:23:21.224Z,28.17
2022-09-04T11:26:26.463Z,28.02
2022-09-04T11:29:16.780Z,27.88
2022-09-04T11:32:21.164Z,28.01
2022-09-04T11:35:22.214Z,28.02
2022-09-04T11:37:58.640Z,27.81
2022-09-04T11:41:15.955Z,27.49
2022-09-04T11:43:42.441Z,27.38
2022-09-04T11:46:11.918Z,27.41
2022-09-04T11:49:16.037Z,27.62
2022-09-04T11:52:02.244Z,27.87
2022-09-04T11:54:56.195Z,27.94
2022-09-04T11:57:57.252Z,27.90
2022-09-04T12:00:23.891Z,27.88
2022-09-04T12:03:30.756Z,27.85
2022-09-04T12:06:23.291Z,27.65
2022-09-04T12:09:14.310Z,27.75
2022-09-04T12:12:28.988Z,27.79
2022-09-04T12:15:23.505Z,27.80
2022-09-04T12:18:22.282Z,27.69
2022-09-04T12:21:07.627Z,27.63
2022-09-04T12:23:53.039Z,27.50
2022-09-04T12:26:22.560Z,27.51
2022-09-04T12:29:20.111Z,27.42
2022-09-04T12:32:12.171Z,27.36
2022-09-04T12:34:46.112Z,27.31
2022-09-04T12:37:36.789Z,27.34
2022-09-04T12:40:22.121Z,27.34
2022-09-04T12:42:58.809Z,27.26
2022-09-04T12:45:50.500Z,27.22
2022-09-04T12:48:36.028Z,27.19
2022-09-04T12:51:26.627Z,27.10
2022-09-04T12:54:12.653Z,27.21
2022-09-04T12:56:49.084Z,27.51
2022-09-04T12:59:58.097Z,27.80
2022-09-04T13:02:34.216Z,27.90
2022-09-04T13:05:07.014Z,27.86
2022-09-04T13:07:55.846Z,27.81
2022-09-04T13:10:46.134Z,27.82
2022-09-04T13:13:18.677Z,27.92
2022-09-04T13:15:54.276Z,28.15
2022-09-04T13:18:31.671Z,28.38
2022-09-04T13:21:00.872Z,28.35
2022-09-04T13:23:36.955Z,28.23
2022-09-04T13:26:16.651Z,28.10
2022-09-04T13:28:51.176Z,27.96
2022-09-04T13:31:33.542Z,27.85
2022-09-04T13:34:13.274Z,27.76
2022-09-04T13:37:16.929Z,27.72
2022-09-04T13:40:16.706Z,27.71
2022-09-04T13:42:52.677Z,27.72
2022-09-04T13:45:24.097Z,27.76
2022-09-04T13:48:06.617Z,27.74
2022-09-04T13:50:42.653Z,27.70
2022-09-04T13:53:32.534Z,27.66
2022-09-04T13:56:06.743Z,27.65
2022-09-04T13:58:51.344Z,27.58
2022-09-04T14:01:22.633Z,27.56
2022-09-04T14:03:57.743Z,27.56
2022-09-04T14:06:27.104Z,28.14
2022-09-04T14:09:04.592Z,29.23
2022-09-04T14:11:47.512Z,30.42
2022-09-04T14:14:59.761Z,30.93
2022-09-04T14:17:56.176Z,31.72
2022-09-04T14:20:34.336Z,32.66
2022-09-04T14:23:21.874Z,33.54
2022-09-04T14:26:04.068Z,34.23
2022-09-04T14:28:37.710Z,34.95
2022-09-04T14:31:10.383Z,35.25
2022-09-04T14:34:03.417Z,35.26
2022-09-04T14:36:42.754Z,34.39
2022-09-04T14:39:18.311Z,33.55
2022-09-04T14:42:12.289Z,32.85
2022-09-04T14:44:47.587Z,32.17
2022-09-04T14:47:26.704Z,31.56
2022-09-04T14:50:01.267Z,31.17
2022-09-04T14:52:44.614Z,30.93
2022-09-04T14:55:26.688Z,31.71
2022-09-04T14:58:23.975Z,31.80
2022-09-04T15:01:07.194Z,31.60
2022-09-04T15:03:55.450Z,31.23
2022-09-04T15:06:44.623Z,30.95
2022-09-04T15:09:23.655Z,30.69
2022-09-04T15:12:21.027Z,30.93
2022-09-04T15:14:50.315Z,31.18
2022-09-04T15:17:30.264Z,31.03
2022-09-04T15:20:05.270Z,30.85
2022-09-04T15:22:46.254Z,30.85
2022-09-04T15:25:19.085Z,30.71
2022-09-04T15:28:30.671Z,31.13
2022-09-04T15:31:31.606Z,31.43
2022-09-04T15:34:08.522Z,31.19
2022-09-04T15:36:39.273Z,30.91
2022-09-04T15:39:18.381Z,31.16
2022-09-04T15:41:50.023Z,31.52
2022-09-04T15:44:20.063Z,31.32
2022-09-04T15:47:02.148Z,30.95
2022-09-04T15:49:47.998Z,30.33
2022-09-04T15:52:40.291Z,29.81
2022-09-04T15:55:37.550Z,29.42
2022-09-04T15:58:33.479Z,29.12
2022-09-04T16:01:06.470Z,29.43
2022-09-04T16:03:47.878Z,29.31
2022-09-04T16:06:25.221Z,29.33
2022-09-04T16:08:58.890Z,29.91
2022-09-04T16:11:34.280Z,30.56
2022-09-04T16:14:04.104Z,31.18
2022-09-04T16:16:53.483Z,30.96
2022-09-04T16:19:29.071Z,30.53
2022-09-04T16:22:24.349Z,30.43
2022-09-04T16:25:06.199Z,30.27
2022-09-04T16:27:44.340Z,30.62
2022-09-04T16:30:44.463Z,30.42
2022-09-04T16:33:28.424Z,30.56
2022-09-04T16:36:02.772Z,30.49
2022-09-04T16:38:44.181Z,30.12
2022-09-04T16:41:29.138Z,29.84
2022-09-04T16:44:14.648Z,29.46
2022-09-04T16:47:02.545Z,29.15
2022-09-04T16:49:35.673Z,28.81
2022-09-04T16:52:22.687Z,28.50
2022-09-04T16:55:48.037Z,28.23
2022-09-04T16:58:54.483Z,27.87
2022-09-04T17:01:32.048Z,27.63
2022-09-04T17:04:30.648Z,27.32
2022-09-04T17:07:15.919Z,27.10
2022-09-04T17:10:09.617Z,26.83
2022-09-04T17:12:59.032Z,26.68
2022-09-04T17:15:36.678Z,26.51
2022-09-04T17:18:10.388Z,26.39
2022-09-04T17:22:40.467Z,26.28
2022-09-04T17:28:56.762Z,26.16
2022-09-04T17:29:12.272Z,26.05
2022-09-04T17:29:39.414Z,25.98
2022-09-04T17:32:53.811Z,25.89
2022-09-04T17:40:39.449Z,25.79
2022-09-04T17:40:54.948Z,25.69
2022-09-04T17:41:38.293Z,25.54
2022-09-04T17:44:22.306Z,25.35
2022-09-04T17:47:13.125Z,25.18
2022-09-04T17:49:48.145Z,25.02
2022-09-04T17:52:27.038Z,24.90
2022-09-04T17:55:06.054Z,24.75
2022-09-04T17:57:51.678Z,24.59
2022-09-04T18:00:25.154Z,24.52
2022-09-04T18:03:15.086Z,24.44
2022-09-04T18:05:53.520Z,24.33
2022-09-04T18:08:48.397Z,24.21
2022-09-04T18:11:28.996Z,24.14
2022-09-04T18:14:18.694Z,24.01
2022-09-04T18:17:12.723Z,23.92
2022-09-04T18:19:48.146Z,23.79
2022-09-04T18:22:26.769Z,23.68
2022-09-04T18:25:20.426Z,23.57
2022-09-04T18:28:12.088Z,23.50
2022-09-04T18:37:06.944Z,23.39
2022-09-04T18:37:19.634Z,23.29
2022-09-04T18:37:44.861Z,23.18
2022-09-04T18:40:06.378Z,23.07
2022-09-04T18:50:22.333Z,22.98
2022-09-04T18:50:28.225Z,23.02
2022-09-04T18:50:48.708Z,22.92
2022-09-04T18:51:31.342Z,22.85
2022-09-04T18:54:10.434Z,22.78
2022-09-04T18:56:45.547Z,22.69
2022-09-04T18:59:26.617Z,22.66
2022-09-04T19:02:02.492Z,22.58
2022-09-04T19:04:40.025Z,22.50
2022-09-04T19:07:31.979Z,22.44
2022-09-04T19:10:07.838Z,22.38
2022-09-04T19:12:47.028Z,22.32
2022-09-04T19:15:37.042Z,22.25
2022-09-04T19:18:27.245Z,22.16
2022-09-04T19:21:14.286Z,22.13
2022-09-04T19:23:44.310Z,22.09
2022-09-04T19:26:23.342Z,22.02
2022-09-04T19:29:08.719Z,21.93
2022-09-04T19:31:42.249Z,21.89
2022-09-04T19:34:13.075Z,21.82
2022-09-04T19:37:04.999Z,21.72
2022-09-04T19:43:14.763Z,21.64
2022-09-04T19:46:09.037Z,21.55
2022-09-04T19:46:25.850Z,21.48
2022-09-04T19:49:34.794Z,21.43
2022-09-04T19:53:33.500Z,21.33
2022-09-04T19:55:24.782Z,21.28
2022-09-04T19:58:25.720Z,21.18
2022-09-04T20:01:01.678Z,21.14
2022-09-04T20:03:36.490Z,21.06
2022-09-04T20:06:26.990Z,20.99
2022-09-04T20:08:59.487Z,20.91
2022-09-04T20:11:40.853Z,20.82
2022-09-04T20:14:46.041Z,20.72
2022-09-04T20:17:51.851Z,20.67
2022-09-04T20:20:23.553Z,20.62
2022-09-04T20:22:56.327Z,20.58
2022-09-04T20:25:58.684Z,20.51
2022-09-04T20:28:36.391Z,20.48
2022-09-04T20:31:28.407Z,20.41
2022-09-04T20:34:15.324Z,20.34
2022-09-04T20:36:49.704Z,20.28
2022-09-04T20:39:24.518Z,20.26
2022-09-04T20:42:09.586Z,20.22
2022-09-04T20:45:38.662Z,20.19
2022-09-04T20:52:50.063Z,20.08
2022-09-04T20:52:50.396Z,20.14
2022-09-04T20:54:08.008Z,20.04
2022-09-04T21:00:04.067Z,19.99
2022-09-04T21:03:14.333Z,19.92
2022-09-04T21:03:39.422Z,19.83
2022-09-04T21:06:22.696Z,19.78
2022-09-04T21:08:57.166Z,19.73
2022-09-04T21:11:40.879Z,19.71
2022-09-04T21:14:44.842Z,19.68
2022-09-04T21:17:51.262Z,19.62
2022-09-04T21:20:59.725Z,19.57
2022-09-04T21:23:59.644Z,19.51
2022-09-04T21:26:52.218Z,19.47
2022-09-04T21:29:27.723Z,19.40
2022-09-04T21:32:12.847Z,19.37
2022-09-04T21:34:57.728Z,19.33
2022-09-04T21:37:40.089Z,19.32
2022-09-04T21:40:49.700Z,19.26
2022-09-04T21:43:41.976Z,19.22
2022-09-04T21:46:23.939Z,19.22
2022-09-04T21:49:27.026Z,19.22
2022-09-04T21:52:45.942Z,19.22
2022-09-04T21:57:13.499Z,19.23
2022-09-04T21:58:21.361Z,19.18
2022-09-04T22:02:43.814Z,19.14
2022-09-04T22:04:20.297Z,19.11
2022-09-04T22:10:52.849Z,19.11
2022-09-04T22:13:45.995Z,19.10
2022-09-04T22:13:49.385Z,19.09
2022-09-04T22:16:35.052Z,19.07
2022-09-04T22:19:23.958Z,19.03
2022-09-04T22:22:25.471Z,18.98
2022-09-04T22:25:17.024Z,18.94
2022-09-04T22:28:08.231Z,18.92
2022-09-04T22:30:56.190Z,18.83
2022-09-04T22:34:15.191Z,18.79
2022-09-04T22:37:11.038Z,18.73
2022-09-04T22:39:59.417Z,18.70
2022-09-04T22:42:47.298Z,18.68
2022-09-04T22:45:29.053Z,18.62
2022-09-04T22:47:58.828Z,18.61
2022-09-04T22:50:36.250Z,18.57
2022-09-04T22:53:26.897Z,18.54
2022-09-04T22:56:19.169Z,18.49
2022-09-04T22:59:09.193Z,18.45
2022-09-04T23:02:13.771Z,18.34
2022-09-04T23:05:12.497Z,18.30
2022-09-04T23:12:39.019Z,18.32
2022-09-04T23:13:47.523Z,18.26
2022-09-04T23:14:48.040Z,18.19
2022-09-04T23:17:26.602Z,18.18
2022-09-04T23:26:33.668Z,18.16
2022-09-04T23:26:49.408Z,18.12
2022-09-04T23:26:50.182Z,18.10
2022-09-04T23:29:11.555Z,18.06
2022-09-04T23:31:48.742Z,18.03
2022-09-04T23:34:19.569Z,18.01
2022-09-04T23:37:06.691Z,17.99
2022-09-04T23:39:33.387Z,17.97
2022-09-04T23:42:24.612Z,17.96
2022-09-04T23:45:18.643Z,17.93
2022-09-04T23:48:03.031Z,17.90
2022-09-04T23:50:45.285Z,17.84
2022-09-04T23:53:16.656Z,17.77
2022-09-04T23:56:31.555Z,17.74
2022-09-04T23:59:36.395Z,17.67
